Data for 07/14/2008

Time Sea-Level Adjusted Pressure Absolute Pressure Temperature Relative Humidity Dew Point   
(mb) (inHg) (mb) (inHg) (C) (F) (%) (C) (F)
00:05 1019 30.09 848 25.04 15.3 59.6 39 1.5 34.7
00:10 1019 30.09 848 25.04 15.4 59.8 42 2.6 36.7
00:15 1019 30.09 848 25.04 15.2 59.4 41 2.3 36.1
00:20 1019 30.09 848 25.04 14.9 58.9 41 1.7 35.1
00:25 1019 30.09 848 25.04 15 59.1 40 1.6 34.8
00:30 1019 30.09 848 25.04 15.2 59.3 39 1.2 34.2
00:35 1019 30.09 848 25.04 15.2 59.3 40 1.6 34.9
00:40 1019 30.09 848 25.04 14.9 58.9 40 1.7 35
00:45 1019 30.09 848 25.04 14.8 58.6 40 1.3 34.4
00:50 1019 30.09 848 25.04 14.9 58.9 39 1 33.9
00:55 1019 30.09 848 25.04 15.1 59.2 37 0.6 33
01:00 1019 30.09 848 25.04 15.3 59.5 36 0.4 32.7
01:05 1019 30.09 848 25.04 15.5 59.9 37 1.1 33.9
01:10 1019 30.09 848 25.04 15.4 59.6 37 0.9 33.5
01:15 1019 30.09 848 25.04 15.2 59.3 38 0.9 33.6
01:20 1019 30.09 848 25.04 15.1 59.2 38 0.8 33.5
01:25 1019 30.09 848 25.04 15.3 59.5 36 0.3 32.5
01:30 1019 30.09 848 25.04 15.5 59.9 36 0.5 32.9
01:35 1019 30.09 848 25.04 15.3 59.5 38 1.1 34
01:40 1019 30.09 848 25.04 15.2 59.4 36 0.4 32.7
01:45 1019 30.09 848 25.04 15.2 59.4 37 0.6 33
01:50 1019 30.09 848 25.04 15.1 59.1 36 0.2 32.3
01:55 1019 30.09 848 25.04 15.2 59.3 34 -0.5 31.2
02:00 1019 30.09 848 25.04 15.5 60 34 -0.3 31.4
02:05 1019 30.09 848 25.04 15.6 60.1 39 1.8 35.2
02:10 1019 30.09 848 25.04 15.4 59.7 36 0.6 33.1
02:15 1019 30.09 848 25.04 15.3 59.6 37 0.8 33.5
02:20 1019 30.09 848 25.04 15.3 59.5 36 0.4 32.7
02:25 1019 30.09 848 25.04 15.3 59.5 37 0.9 33.7
02:30 1019 30.09 848 25.04 15.2 59.3 36 0.4 32.7
02:35 1019 30.09 848 25.04 15 59.1 35 -0 32
02:40 1019 30.09 848 25.04 15 59 37 0.4 32.8
02:45 1019 30.09 848 25.04 14.9 58.7 37 0.4 32.8
02:50 1019 30.09 848 25.04 14.7 58.5 38 0.5 32.9
02:55 1019 30.09 848 25.04 14.6 58.2 39 0.8 33.4
03:00 1019 30.09 848 25.04 14.3 57.7 39 0.7 33.3
03:05 1019 30.09 848 25.04 14.2 57.5 40 1 33.8
03:10 1019 30.09 848 25.04 14 57.2 41 1.2 34.1
03:15 1019 30.09 848 25.04 13.9 56.9 41 0.9 33.7
03:20 1019 30.09 848 25.04 13.9 57 41 1 33.8
03:25 1019 30.09 848 25.04 13.8 56.8 40 0.6 33.1
03:30 1019 30.09 848 25.04 14.2 57.5 41 1.1 34
03:35 1019 30.09 848 25.04 13.8 56.9 42 1.2 34.1
03:40 1019 30.09 848 25.04 13.6 56.5 43 1.4 34.4
03:45 1019 30.09 848 25.04 13.6 56.4 43 1.2 34.1
03:50 1019 30.09 848 25.04 13.6 56.5 42 1 33.8
03:55 1019 30.09 848 25.04 13.7 56.6 42 1.2 34.1
04:00 1019 30.09 848 25.04 13.6 56.5 43 1.2 34.2
04:05 1019 30.09 848 25.04 13.6 56.5 43 1.4 34.5
04:10 1019 30.09 848 25.04 13.3 56 45 1.8 35.3
04:15 1019 30.09 848 25.04 13.1 55.5 45 1.6 34.8
04:20 1019 30.09 848 25.04 13.1 55.5 46 1.7 35
04:25 1019 30.09 848 25.04 13 55.3 46 1.8 35.2
04:30 1019 30.09 848 25.04 12.7 54.8 47 1.8 35.3
04:35 1019 30.09 848 25.04 12.1 53.9 51 2.5 36.5
04:40 1019 30.09 848 25.04 11.7 53 50 1.7 35
04:45 1019 30.09 848 25.04 12.2 54 47 1.3 34.4
04:50 1019 30.09 848 25.04 12.6 54.6 46 1.2 34.2
04:55 1019 30.09 848 25.04 12.8 55 45 1.1 33.9
05:00 1019 30.09 848 25.04 12.9 55.2 44 1.1 33.9
05:05 1019 30.09 848 25.04 13.1 55.5 42 0.5 32.9
05:10 1019 30.09 848 25.04 13.7 56.6 40 0.3 32.5
05:15 1019 30.09 848 25.04 13.8 56.9 41 0.8 33.5
05:20 1019 30.09 849 25.07 13.5 56.3 42 1 33.9
05:25 1019 30.09 849 25.07 13.2 55.8 41 0.5 32.8
05:30 1019 30.09 849 25.07 13.6 56.5 41 0.8 33.4
05:35 1019 30.09 849 25.07 13.5 56.2 41 0.7 33.2
05:40 1019 30.09 849 25.07 13.4 56.2 43 1.1 34
05:45 1019 30.09 849 25.07 13.4 56 41 0.4 32.8
05:50 1019 30.09 849 25.07 13 55.4 43 0.9 33.7
05:55 1019 30.09 849 25.07 12.9 55.3 43 0.7 33.2
06:00 1019 30.09 849 25.07 13.2 55.8 42 0.7 33.3
06:05 1019 30.09 849 25.07 13.2 55.8 43 0.9 33.6
06:10 1020 30.12 849 25.07 13.2 55.8 41 0.5 32.8
06:15 1020 30.12 849 25.07 13.7 56.6 40 0.5 32.9
06:20 1020 30.12 849 25.07 13.8 56.8 39 0.2 32.3
06:25 1020 30.12 849 25.07 14 57.2 39 0.5 32.9
06:30 1020 30.12 849 25.07 14 57.2 40 0.8 33.5
06:35 1020 30.12 849 25.07 13.8 56.9 41 1 33.8
06:40 1020 30.12 849 25.07 14 57.3 41 0.9 33.7
06:45 1020 30.12 849 25.07 14 57.1 43 1.6 34.8
06:50 1020 30.12 849 25.07 13.8 56.9 43 1.4 34.6
06:55 1020 30.12 849 25.07 13.8 56.8 42 1.1 34
07:00 1020 30.12 849 25.07 13.6 56.5 43 1.5 34.7
07:05 1020 30.12 849 25.07 13.7 56.7 44 1.6 34.9
07:10 1020 30.12 849 25.07 13.8 56.8 44 1.8 35.2
07:15 1020 30.12 849 25.07 14 57.2 44 2 35.7
07:20 1020 30.12 849 25.07 14.1 57.4 43 1.6 35
07:25 1020 30.12 849 25.07 14.6 58.2 41 1.4 34.5
07:30 1020 30.12 849 25.07 14.9 58.8 40 1.4 34.5
07:35 1020 30.12 849 25.07 15.4 59.6 40 1.8 35.3
07:40 1020 30.12 849 25.07 15.9 60.7 41 2.6 36.8
07:45 1020 30.12 849 25.07 15.8 60.4 43 3.2 37.8
07:50 1020 30.12 849 25.07 16.1 61 41 2.8 37.1
07:55 1020 30.12 849 25.07 16.4 61.4 38 2.2 35.9
08:00 1020 30.12 849 25.07 16.4 61.4 40 2.8 37.1
08:05 1020 30.12 849 25.07 16.9 62.5 39 3 37.4
08:10 1020 30.12 849 25.07 17.8 64 36 2.7 36.9
08:15 1020 30.12 849 25.07 18 64.5 37 3.1 37.6
08:20 1020 30.12 849 25.07 18.2 64.8 37 3.3 37.9
08:25 1020 30.12 849 25.07 18.7 65.6 38 4.1 39.4
08:30 1020 30.12 849 25.07 18.7 65.7 37 4.1 39.3
08:35 1020 30.12 849 25.07 19.2 66.5 33 2.6 36.7
08:40 1020 30.12 849 25.07 19.1 66.3 33 2.6 36.7
08:45 1020 30.12 849 25.07 19.2 66.5 33 2.8 37
08:50 1020 30.12 849 25.07 19.6 67.3 33 3 37.3
08:55 1020 30.12 849 25.07 20.2 68.3 32 3.1 37.6
09:00 1020 30.12 849 25.07 20.9 69.6 29 2.5 36.5
09:05 1020 30.12 849 25.07 21 69.9 30 3 37.4
09:10 1020 30.12 849 25.07 21.4 70.4 29 2.6 36.6
09:15 1020 30.12 849 25.07 21 69.7 28 2.1 35.8
09:20 1020 30.12 849 25.07 21.8 71.2 26 1.8 35.2
09:25 1020 30.12 849 25.07 22.7 72.9 26 2.3 36.2
09:30 1020 30.12 849 25.07 22.4 72.2 27 2.8 37
09:35 1020 30.12 849 25.07 21.7 71 27 2.3 36.1
09:40 1020 30.12 849 25.07 22.5 72.4 25 1.9 35.4
09:45 1020 30.12 849 25.07 22.9 73.3 25 1.9 35.4
09:50 1020 30.12 849 25.07 23.3 74 25 2.4 36.3
09:55 1020 30.12 849 25.07 23.6 74.4 26 3.1 37.6
10:00 1020 30.12 849 25.07 23.8 74.8 24 2.3 36.2
10:05 1020 30.12 849 25.07 24.6 76.2 24 2.8 37
10:10 1020 30.12 849 25.07 24.7 76.5 23 2.6 36.7
10:15 1020 30.12 849 25.07 23.8 74.9 25 2.9 37.2
10:20 1020 30.12 849 25.07 23.6 74.4 23 1.7 35.1
10:25 1020 30.12 849 25.07 23.1 73.7 25 2.5 36.5
10:30 1020 30.12 849 25.07 23.5 74.4 22 0.9 33.7
10:35 1020 30.12 849 25.07 24.2 75.5 21 0.6 33.2
10:40 1020 30.12 849 25.07 24 75.2 22 1.1 34.1
10:45 1020 30.12 849 25.07 24.3 75.8 22 1.4 34.5
10:50 1020 30.12 849 25.07 24.3 75.8 20 0.2 32.4
10:55 1020 30.12 849 25.07 24.6 76.3 20 0.4 32.7
11:00 1020 30.12 849 25.07 24.1 75.4 22 1.1 33.9
11:05 1020 30.12 849 25.07 24.4 75.9 20 0.2 32.4
11:10 1020 30.12 849 25.07 24.9 76.9 20 0.3 32.6
11:15 1020 30.12 849 25.07 25 76.9 20 0.8 33.4
11:20 1020 30.12 849 25.07 24.7 76.4 21 1.2 34.2
11:25 1020 30.12 849 25.07 24.8 76.7 20 0.3 32.5
11:30 1020 30.12 849 25.07 25.5 78 18 -0.6 31
11:35 1019 30.09 849 25.07 25.9 78.5 18 0.1 32.2
11:40 1019 30.09 849 25.07 25.9 78.5 18 0.3 32.5
11:45 1019 30.09 849 25.07 25.7 78.3 18 -0 31.9
11:50 1019 30.09 849 25.07 25.9 78.5 18 0.1 32.1
11:55 1019 30.09 849 25.07 25.7 78.3 18 -0.1 31.8
12:00 1019 30.09 849 25.07 26 78.7 17 -0.3 31.4
12:05 1019 30.09 849 25.07 25.9 78.5 20 1.4 34.5
12:10 1019 30.09 849 25.07 25.7 78.2 20 1.3 34.4
12:15 1019 30.09 848 25.04 26.1 79 21 2.2 36
12:20 1019 30.09 848 25.04 26.1 79 20 1.7 35
12:25 1019 30.09 848 25.04 25.7 78.2 20 1 33.9
12:30 1019 30.09 848 25.04 25.8 78.5 20 1.5 34.7
12:35 1019 30.09 848 25.04 25.9 78.6 18 0 32.1
12:40 1019 30.09 848 25.04 26 78.8 20 1.3 34.3
12:45 1019 30.09 848 25.04 26.4 79.5 18 0.3 32.6
12:50 1019 30.09 848 25.04 26.3 79.3 20 1.4 34.6
12:55 1019 30.09 848 25.04 26.5 79.6 19 0.9 33.7
13:00 1019 30.09 848 25.04 26.6 80 19 1.5 34.6
13:05 1019 30.09 848 25.04 26.8 80.2 18 0.8 33.5
13:10 1019 30.09 848 25.04 27.3 81.2 17 0.3 32.5
13:15 1019 30.09 848 25.04 26.9 80.5 19 1.5 34.6
13:20 1019 30.09 848 25.04 26.4 79.6 18 0.8 33.4
13:25 1019 30.09 848 25.04 26.6 79.9 18 0.8 33.5
13:30 1019 30.09 848 25.04 26.4 79.6 18 0.6 33.2
13:35 1019 30.09 848 25.04 26.6 79.8 18 0.9 33.5
13:40 1019 30.09 848 25.04 26.9 80.5 18 1.2 34.2
13:45 1019 30.09 848 25.04 27.6 81.7 17 0.7 33.3
13:50 1019 30.09 848 25.04 27.9 82.2 17 1 33.8
13:55 1019 30.09 848 25.04 27.4 81.3 17 0.8 33.5
14:00 1019 30.09 848 25.04 26.7 80 17 0.1 32.1
14:05 1018 30.06 848 25.04 27.4 81.2 17 0.4 32.6
14:10 1018 30.06 848 25.04 27.7 81.8 17 0.9 33.6
14:15 1018 30.06 848 25.04 28.2 82.7 17 1 33.8
14:20 1018 30.06 848 25.04 27.7 81.9 18 1.2 34.2
14:25 1018 30.06 848 25.04 26.7 80.1 18 0.9 33.7
14:30 1018 30.06 848 25.04 26.1 78.9 19 1.2 34.2
14:35 1018 30.06 848 25.04 26.3 79.4 18 0.7 33.3
14:40 1018 30.06 847 25.01 26.4 79.5 18 0.7 33.3
14:45 1018 30.06 847 25.01 26.8 80.2 17 0.3 32.5
14:50 1018 30.06 847 25.01 27.3 81.1 17 0.7 33.3
14:55 1018 30.06 847 25.01 28.4 83.1 15 0 32.1
15:00 1018 30.06 847 25.01 28.4 83.1 16 0.7 33.2
15:05 1018 30.06 847 25.01 28.4 83.2 17 1.5 34.6
15:10 1018 30.06 847 25.01 28.4 83.1 18 2.4 36.3
15:15 1018 30.06 847 25.01 28.1 82.6 16 -0.1 31.8
15:20 1018 30.06 847 25.01 28.6 83.4 15 -0.1 31.8
15:25 1018 30.06 847 25.01 28.9 83.9 14 -1.1 30
15:30 1018 30.06 847 25.01 29.1 84.4 14 -1 30.2
15:35 1018 30.06 847 25.01 29.1 84.3 14 -0.7 30.8
15:40 1018 30.06 847 25.01 28.4 83 15 -0.9 30.5
15:45 1018 30.06 847 25.01 28 82.5 15 -0.7 30.8
15:50 1018 30.06 847 25.01 28.3 82.9 14 -1.3 29.6
15:55 1018 30.06 847 25.01 28.3 83 14 -1.4 29.5
16:00 1018 30.06 847 25.01 28.3 83 14 -1.2 29.9
16:05 1018 30.06 847 25.01 28.8 83.9 14 -1.5 29.3
16:10 1018 30.06 847 25.01 28.9 84.1 13 -1.9 28.6
16:15 1018 30.06 847 25.01 29.3 84.8 13 -1.7 29
16:20 1018 30.06 847 25.01 28.9 84.1 12 -2.7 27.2
16:25 1018 30.06 847 25.01 28.8 83.8 13 -1.9 28.6
16:30 1018 30.06 847 25.01 28.9 84.1 12 -3 26.6
16:35 1018 30.06 847 25.01 29.2 84.6 13 -2.2 28.1
16:40 1018 30.06 847 25.01 29 84.2 12 -2.8 27
16:45 1018 30.06 847 25.01 29.3 84.7 13 -2 28.4
16:50 1018 30.06 847 25.01 29.2 84.5 12 -2.5 27.6
16:55 1018 30.06 847 25.01 29.1 84.4 12 -2.5 27.5
17:00 1018 30.06 847 25.01 29.4 85 12 -2.4 27.7
17:05 1018 30.06 847 25.01 29 84.2 12 -2.6 27.4
17:10 1018 30.06 847 25.01 29.1 84.3 13 -2.1 28.1
17:15 1018 30.06 847 25.01 29.2 84.6 13 -1.4 29.5
17:20 1018 30.06 847 25.01 29.4 84.9 12 -2.5 27.6
17:25 1018 30.06 847 25.01 29.6 85.2 12 -2.9 26.8
17:30 1018 30.06 847 25.01 29.2 84.5 13 -1.4 29.5
17:35 1017 30.03 847 25.01 28.3 83 13 -2.8 27
17:40 1017 30.03 847 25.01 28.7 83.7 13 -2.2 28.1
17:45 1017 30.03 847 25.01 29.2 84.6 13 -1.7 28.9
17:50 1017 30.03 847 25.01 29.6 85.2 13 -1.6 29.1
17:55 1017 30.03 847 25.01 29.3 84.8 12 -2.4 27.7
18:00 1017 30.03 847 25.01 29.4 84.8 13 -1.4 29.4
18:05 1017 30.03 846 24.98 29.3 84.7 12 -2.7 27.1
18:10 1017 30.03 846 24.98 29.1 84.4 13 -2 28.4
18:15 1017 30.03 846 24.98 29.3 84.8 12 -2.7 27.1
18:20 1017 30.03 846 24.98 29.1 84.5 12 -3.2 26.2
18:25 1017 30.03 846 24.98 29 84.2 11 -3.7 25.4
18:30 1017 30.03 846 24.98 29 84.2 11 -3.7 25.3
18:35 1017 30.03 846 24.98 28.9 84 12 -3.6 25.5
18:40 1017 30.03 846 24.98 29.2 84.6 12 -3 26.6
18:45 1017 30.03 846 24.98 29.4 84.9 12 -2.4 27.6
18:50 1017 30.03 846 24.98 29.1 84.4 12 -2.6 27.3
18:55 1017 30.03 846 24.98 28.9 84.1 11 -3.6 25.5
19:00 1017 30.03 846 24.98 29 84.2 12 -3.1 26.5
19:05 1017 30.03 846 24.98 29 84.1 12 -2.5 27.4
19:10 1017 30.03 846 24.98 28.2 82.7 13 -2.4 27.6
19:15 1017 30.03 846 24.98 28 82.4 14 -2.1 28.2
19:20 1017 30.03 846 24.98 27.8 82 13 -2.4 27.6
19:25 1017 30.03 846 24.98 27.7 81.8 14 -2.1 28.2
19:30 1017 30.03 846 24.98 27.5 81.5 14 -1.9 28.7
19:35 1017 30.03 846 24.98 27.3 81.2 15 -1.5 29.3
19:40 1017 30.03 846 24.98 27.2 81 14 -2 28.3
19:45 1017 30.03 846 24.98 27.1 80.7 15 -1.9 28.5
19:50 1017 30.03 847 25.01 27 80.6 14 -2 28.4
19:55 1017 30.03 847 25.01 26.9 80.5 14 -2.4 27.7
20:00 1017 30.03 847 25.01 26.8 80.2 15 -2.1 28.2
20:05 1017 30.03 847 25.01 26.7 80 15 -1.7 29
20:10 1017 30.03 847 25.01 26.6 79.8 15 -1.8 28.8
20:15 1017 30.03 847 25.01 26.4 79.6 15 -1.7 29
20:20 1017 30.03 847 25.01 26.2 79.1 16 -1.7 28.9
20:25 1017 30.03 847 25.01 26 78.8 16 -1.6 29.1
20:30 1017 30.03 847 25.01 25.9 78.6 17 -0.6 31
20:35 1017 30.03 847 25.01 25.7 78.3 18 -0.3 31.5
20:40 1018 30.06 847 25.01 25.5 77.8 18 -0.1 31.8
20:45 1018 30.06 847 25.01 25.2 77.4 19 0.5 32.9
20:50 1018 30.06 847 25.01 25 76.9 20 0.4 32.7
20:55 1018 30.06 847 25.01 24.8 76.6 21 1.2 34.2
21:00 1018 30.06 847 25.01 24.4 75.8 22 1.5 34.8
21:05 1018 30.06 847 25.01 23.9 75 23 1.6 34.8
21:10 1018 30.06 847 25.01 23.6 74.6 25 2.8 37.1
21:15 1018 30.06 847 25.01 23.3 74 24 1.9 35.4
21:20 1018 30.06 847 25.01 22.9 73.2 28 3.9 39
21:25 1018 30.06 847 25.01 21.9 71.5 32 4.7 40.5
21:30 1018 30.06 847 25.01 21.3 70.3 31 3.6 38.4
21:35 1018 30.06 847 25.01 21 69.8 32 3.8 38.8
21:40 1018 30.06 848 25.04 20.5 68.9 33 3.9 39
21:45 1018 30.06 848 25.04 20.3 68.6 33 3.6 38.4
21:50 1018 30.06 848 25.04 20.1 68.2 30 2.3 36.2
21:55 1019 30.09 848 25.04 19.9 67.9 29 1.6 34.9
22:00 1019 30.09 848 25.04 20 68 28 1.1 34
22:05 1019 30.09 848 25.04 20 67.9 29 1.6 34.8
22:10 1019 30.09 848 25.04 19.7 67.4 28 0.9 33.5
22:15 1019 30.09 848 25.04 19.7 67.4 29 1.5 34.7
22:20 1019 30.09 848 25.04 19.3 66.7 31 1.9 35.4
22:25 1019 30.09 848 25.04 19.1 66.3 30 1.2 34.1
22:30 1019 30.09 848 25.04 18.9 66 31 1.7 35.1
22:35 1019 30.09 848 25.04 18.5 65.4 32 1.6 34.8
22:40 1019 30.09 848 25.04 18.2 64.8 31 1.1 33.9
22:45 1019 30.09 848 25.04 17.9 64.3 31 0.6 33.1
22:50 1019 30.09 848 25.04 17.7 63.8 34 1.8 35.2
22:55 1019 30.09 848 25.04 16.9 62.5 35 1.6 34.8
23:00 1019 30.09 848 25.04 16.8 62.2 33 0.7 33.3
23:05 1019 30.09 848 25.04 16.8 62.3 32 0.3 32.5
23:10 1019 30.09 848 25.04 17 62.7 31 -0.2 31.6
23:15 1019 30.09 849 25.07 17.3 63.1 30 -0.3 31.5
23:20 1019 30.09 849 25.07 17.4 63.2 29 -0.7 30.8
23:25 1019 30.09 849 25.07 17.4 63.3 29 -0.6 30.9
23:30 1019 30.09 849 25.07 17.5 63.4 28 -1.1 29.9
23:35 1020 30.12 849 25.07 17.5 63.5 28 -0.9 30.4
23:40 1020 30.12 849 25.07 17.3 63.1 29 -0.7 30.8
23:45 1020 30.12 849 25.07 17.1 62.8 29 -1.2 29.9
23:50 1020 30.12 849 25.07 17.1 62.7 27 -1.8 28.7
23:55 1020 30.12 849 25.07 17.3 63.1 28 -1.5 29.4
24:00 1020 30.12 849 25.07 17.1 62.8 29 -1.1 30